createdAt,value
2018-08-30T00:01:39.868Z,96884.24
2018-08-30T00:05:04.813Z,96885.92
2018-08-30T00:08:29.543Z,96895.06
2018-08-30T00:11:54.240Z,96889.38
2018-08-30T00:15:19.000Z,96894.21
2018-08-30T00:18:44.188Z,96893.84
2018-08-30T00:22:08.991Z,96896.09
2018-08-30T00:25:33.731Z,96899.66
2018-08-30T00:28:58.338Z,96902.38
2018-08-30T00:32:23.009Z,96902.03
2018-08-30T00:35:47.683Z,96909.14
2018-08-30T00:39:12.384Z,96911.20
2018-08-30T00:42:37.045Z,96912.41
2018-08-30T00:46:01.749Z,96915.19
2018-08-30T00:49:26.454Z,96918.95
2018-08-30T00:52:51.088Z,96915.05
2018-08-30T00:56:15.768Z,96916.11
2018-08-30T00:59:40.427Z,96920.66
2018-08-30T01:03:05.172Z,96921.30
2018-08-30T01:06:29.934Z,96919.58
2018-08-30T01:09:55.024Z,96919.48
2018-08-30T01:13:19.705Z,96925.84
2018-08-30T01:16:44.388Z,96928.06
2018-08-30T01:20:09.880Z,96927.92
2018-08-30T01:23:34.698Z,96925.27
2018-08-30T01:26:59.346Z,96931.10
2018-08-30T01:30:24.112Z,96933.28
2018-08-30T01:33:48.828Z,96932.95
2018-08-30T01:37:13.752Z,96944.39
2018-08-30T01:40:38.400Z,96954.17
2018-08-30T01:44:03.188Z,96946.77
2018-08-30T01:47:27.896Z,96945.52
2018-08-30T01:50:52.558Z,96946.23
2018-08-30T01:54:17.202Z,96948.13
2018-08-30T01:57:41.860Z,96940.22
2018-08-30T02:01:06.640Z,96944.45
2018-08-30T02:04:31.849Z,96940.64
2018-08-30T02:07:56.590Z,96936.23
2018-08-30T02:11:21.354Z,96935.48
2018-08-30T02:14:45.982Z,96941.11
2018-08-30T02:18:10.653Z,96942.70
2018-08-30T02:22:59.694Z,96947.27
2018-08-30T02:26:24.373Z,96948.39
2018-08-30T02:29:48.973Z,96947.37
2018-08-30T02:33:13.663Z,96946.99
2018-08-30T02:36:38.345Z,96943.34
2018-08-30T02:40:03.028Z,96950.30
2018-08-30T02:43:27.778Z,96946.52
2018-08-30T02:46:52.476Z,96940.75
2018-08-30T02:50:17.184Z,96936.14
2018-08-30T02:53:41.950Z,96937.36
2018-08-30T02:57:06.629Z,96940.56
2018-08-30T03:00:31.253Z,96937.98
2018-08-30T03:03:55.895Z,96936.53
2018-08-30T03:07:20.529Z,96928.10
2018-08-30T03:10:45.186Z,96939.81
2018-08-30T03:14:09.871Z,96937.86
2018-08-30T03:17:34.824Z,96940.66
2018-08-30T03:20:59.485Z,96947.84
2018-08-30T03:24:24.224Z,96938.18
2018-08-30T03:27:48.969Z,96948.22
2018-08-30T03:31:13.601Z,96947.84
2018-08-30T03:34:38.242Z,96949.20
2018-08-30T03:38:02.955Z,96945.78
2018-08-30T03:41:27.660Z,96940.75
2018-08-30T03:44:52.332Z,96946.62
2018-08-30T03:48:17.099Z,96952.73
2018-08-30T03:51:41.761Z,96954.08
2018-08-30T03:55:06.655Z,96945.40
2018-08-30T04:02:06.198Z,96942.83
2018-08-30T04:05:30.936Z,96939.20
2018-08-30T04:08:55.603Z,96936.70
2018-08-30T04:12:20.262Z,96943.66
2018-08-30T04:15:44.893Z,96945.02
2018-08-30T04:19:09.578Z,96949.66
2018-08-30T04:22:34.271Z,96951.89
2018-08-30T04:25:58.992Z,96948.23
2018-08-30T04:29:23.668Z,96950.23
2018-08-30T04:32:48.329Z,96952.58
2018-08-30T04:36:12.992Z,96959.30
2018-08-30T04:39:37.670Z,96951.77
2018-08-30T04:43:02.352Z,96950.67
2018-08-30T04:46:27.059Z,96955.47
2018-08-30T04:49:51.762Z,96951.28
2018-08-30T04:53:16.429Z,96954.04
2018-08-30T04:56:41.851Z,96966.72
2018-08-30T05:00:07.426Z,96979.72
2018-08-30T05:03:32.119Z,96973.38
2018-08-30T05:06:57.135Z,96979.41
2018-08-30T05:10:21.936Z,96968.32
2018-08-30T05:13:46.600Z,96978.52
2018-08-30T05:17:11.411Z,96980.62
2018-08-30T05:20:36.348Z,96988.73
2018-08-30T05:24:01.151Z,96984.77
2018-08-30T05:27:26.151Z,96994.55
2018-08-30T05:30:51.984Z,96994.18
2018-08-30T05:34:18.305Z,97001.64
2018-08-30T05:37:44.558Z,96999.25
2018-08-30T05:41:09.563Z,97001.95
2018-08-30T05:44:34.632Z,96998.43
2018-08-30T05:48:00.519Z,97000.98
2018-08-30T05:51:25.228Z,97002.66
2018-08-30T05:54:49.910Z,97009.77
2018-08-30T05:58:14.571Z,97004.83
2018-08-30T06:01:39.235Z,97005.73
2018-08-30T06:05:03.999Z,96989.80
2018-08-30T06:08:28.841Z,96993.66
2018-08-30T06:11:53.491Z,97000.67
2018-08-30T06:15:18.147Z,97008.39
2018-08-30T06:18:42.807Z,97025.52
2018-08-30T06:22:07.528Z,97024.83
2018-08-30T06:25:32.208Z,97037.80
2018-08-30T06:28:57.652Z,97039.19
2018-08-30T06:32:22.390Z,97035.16
2018-08-30T06:35:47.238Z,97040.56
2018-08-30T06:39:11.885Z,97051.75
2018-08-30T06:42:36.533Z,97060.77
2018-08-30T06:47:25.701Z,97056.73
2018-08-30T06:50:51.211Z,97063.12
2018-08-30T06:54:16.046Z,97067.34
2018-08-30T06:57:44.181Z,97074.55
2018-08-30T07:01:10.321Z,97082.37
2018-08-30T07:04:35.793Z,97081.48
2018-08-30T07:08:01.419Z,97083.64
2018-08-30T07:11:26.333Z,97084.98
2018-08-30T07:14:51.128Z,97077.48
2018-08-30T07:18:16.913Z,97078.80
2018-08-30T07:21:41.645Z,97082.29
2018-08-30T07:25:06.819Z,97078.78
2018-08-30T07:28:40.448Z,97088.61
2018-08-30T07:32:05.870Z,97088.52
2018-08-30T07:35:30.509Z,97093.66
2018-08-30T07:38:55.291Z,97090.47
2018-08-30T07:42:20.055Z,97107.00
2018-08-30T07:45:44.679Z,97105.98
2018-08-30T07:49:10.022Z,97118.72
2018-08-30T07:52:34.637Z,97134.05
2018-08-30T07:55:59.308Z,97123.00
2018-08-30T07:59:24.033Z,97134.94
2018-08-30T08:02:48.755Z,97131.28
2018-08-30T08:06:13.382Z,97132.22
2018-08-30T08:09:38.098Z,97137.66
2018-08-30T08:13:02.759Z,97138.14
2018-08-30T08:16:27.477Z,97133.27
2018-08-30T08:19:52.157Z,97137.48
2018-08-30T08:23:16.821Z,97142.30
2018-08-30T08:26:41.473Z,97143.53
2018-08-30T08:30:06.426Z,97137.77
2018-08-30T08:33:31.110Z,97138.73
2018-08-30T08:36:55.900Z,97139.88
2018-08-30T08:40:20.569Z,97147.66
2018-08-30T08:43:45.319Z,97152.28
2018-08-30T08:47:10.085Z,97146.39
2018-08-30T08:50:34.825Z,97151.56
2018-08-30T08:53:59.614Z,97149.33
2018-08-30T08:57:24.344Z,97154.59
2018-08-30T09:00:49.139Z,97153.74
2018-08-30T09:04:14.022Z,97157.44
2018-08-30T09:07:38.945Z,97153.95
2018-08-30T09:11:03.661Z,97157.83
2018-08-30T09:14:28.360Z,97170.36
2018-08-30T09:17:53.117Z,97164.17
2018-08-30T09:21:17.750Z,97169.61
2018-08-30T09:24:42.723Z,97171.46
2018-08-30T09:28:07.418Z,97165.53
2018-08-30T09:31:32.048Z,97173.27
2018-08-30T09:34:56.780Z,97168.44
2018-08-30T09:38:21.408Z,97173.98
2018-08-30T09:41:46.094Z,97175.71
2018-08-30T09:45:10.763Z,97173.34
2018-08-30T09:48:35.420Z,97172.13
2018-08-30T09:52:00.091Z,97167.98
2018-08-30T09:55:24.770Z,97163.63
2018-08-30T09:58:49.435Z,97166.25
2018-08-30T10:02:19.292Z,97158.89
2018-08-30T10:05:43.977Z,97155.24
2018-08-30T10:09:10.871Z,97159.67
2018-08-30T10:12:35.710Z,97161.55
2018-08-30T10:16:00.567Z,97164.30
2018-08-30T10:19:25.136Z,97169.75
2018-08-30T10:22:49.841Z,97169.16
2018-08-30T10:26:14.609Z,97167.02
2018-08-30T10:29:39.453Z,97157.41
2018-08-30T10:33:13.137Z,97173.44
2018-08-30T10:36:37.980Z,97166.03
2018-08-30T10:40:02.878Z,97172.04
2018-08-30T10:43:27.691Z,97164.81
2018-08-30T10:46:52.383Z,97172.59
2018-08-30T10:50:21.255Z,97161.00
2018-08-30T10:53:46.078Z,97159.05
2018-08-30T10:57:10.924Z,97163.22
2018-08-30T11:00:36.038Z,97154.44
2018-08-30T11:04:01.251Z,97157.53
2018-08-30T11:07:26.240Z,97153.72
2018-08-30T11:10:51.061Z,97159.21
2018-08-30T11:14:15.996Z,97155.53
2018-08-30T11:17:40.671Z,97157.53
2018-08-30T11:21:05.416Z,97153.36
2018-08-30T11:24:30.241Z,97150.45
2018-08-30T11:27:55.043Z,97150.25
2018-08-30T11:31:19.810Z,97144.66
2018-08-30T11:34:44.568Z,97147.36
2018-08-30T11:38:09.249Z,97150.44
2018-08-30T11:41:34.127Z,97150.17
2018-08-30T11:44:58.733Z,97152.23
2018-08-30T11:48:23.509Z,97148.11
2018-08-30T11:53:12.638Z,97145.05
2018-08-30T11:56:37.298Z,97151.88
2018-08-30T12:00:01.984Z,97146.31
2018-08-30T12:03:26.659Z,97148.09
2018-08-30T12:06:51.377Z,97150.77
2018-08-30T12:10:16.140Z,97151.55
2018-08-30T12:13:40.790Z,97152.88
2018-08-30T12:17:05.555Z,97153.38
2018-08-30T12:20:30.359Z,97153.44
2018-08-30T12:23:55.049Z,97154.72
2018-08-30T12:27:19.691Z,97147.36
2018-08-30T12:30:44.396Z,97152.61
2018-08-30T12:34:09.189Z,97147.02
2018-08-30T12:37:33.923Z,97137.59
2018-08-30T12:40:58.689Z,97143.56
2018-08-30T12:44:23.341Z,97139.38
2018-08-30T12:47:48.040Z,97142.45
2018-08-30T12:51:12.662Z,97140.59
2018-08-30T12:54:37.542Z,97128.30
2018-08-30T12:58:02.219Z,97130.19
2018-08-30T13:01:27.022Z,97132.11
2018-08-30T13:04:51.706Z,97129.23
2018-08-30T13:08:16.588Z,97123.98
2018-08-30T13:11:41.198Z,97122.77
2018-08-30T13:15:06.213Z,97127.56
2018-08-30T13:18:30.546Z,97119.33
2018-08-30T13:21:55.216Z,97116.80
2018-08-30T13:25:19.883Z,97120.27
2018-08-30T13:28:44.808Z,97108.55
2018-08-30T13:32:09.583Z,97117.03
2018-08-30T13:35:34.271Z,97117.30
2018-08-30T13:38:59.101Z,97118.54
2018-08-30T13:42:23.767Z,97117.88
2018-08-30T13:45:48.492Z,97112.27
2018-08-30T13:49:13.305Z,97109.80
2018-08-30T13:52:37.867Z,97112.67
2018-08-30T13:56:02.665Z,97107.31
2018-08-30T13:59:27.478Z,97102.45
2018-08-30T14:02:51.770Z,97096.07
2018-08-30T14:06:16.720Z,97098.75
2018-08-30T14:09:41.347Z,97098.80
2018-08-30T14:13:08.645Z,97093.97
2018-08-30T14:16:34.796Z,97088.77
2018-08-30T14:20:00.266Z,97094.75
2018-08-30T14:23:26.330Z,97083.20
2018-08-30T14:26:52.672Z,97085.54
2018-08-30T14:30:17.801Z,97087.05
2018-08-30T14:33:42.948Z,97079.52
2018-08-30T14:37:07.871Z,97074.31
2018-08-30T14:40:33.386Z,97072.67
2018-08-30T14:44:00.708Z,97077.48
2018-08-30T14:47:26.049Z,97077.20
2018-08-30T14:50:50.984Z,97078.69
2018-08-30T14:54:15.948Z,97072.38
2018-08-30T14:57:41.083Z,97075.91
2018-08-30T15:01:06.338Z,97076.95
2018-08-30T15:04:31.542Z,97074.03
2018-08-30T15:07:56.792Z,97071.95
2018-08-30T15:11:22.360Z,97073.20
2018-08-30T15:14:47.340Z,97074.73
2018-08-30T15:18:12.089Z,97078.78
2018-08-30T15:21:36.795Z,97072.72
2018-08-30T15:25:01.976Z,97081.28
2018-08-30T15:28:27.304Z,97080.23
2018-08-30T15:31:51.868Z,97080.16
2018-08-30T15:35:16.594Z,97076.67
2018-08-30T15:38:41.271Z,97078.62
2018-08-30T15:42:06.109Z,97084.34
2018-08-30T15:45:30.893Z,97081.86
2018-08-30T15:48:55.674Z,97082.98
2018-08-30T15:52:20.269Z,97087.28
2018-08-30T15:55:45.121Z,97090.53
2018-08-30T15:59:09.818Z,97091.28
2018-08-30T16:02:34.477Z,97080.33
2018-08-30T16:05:59.317Z,97079.96
2018-08-30T16:09:24.057Z,97081.13
2018-08-30T16:12:48.830Z,97077.13
2018-08-30T16:16:13.567Z,97071.48
2018-08-30T16:19:38.535Z,97068.79
2018-08-30T16:23:20.285Z,97068.81
2018-08-30T16:26:45.041Z,97074.15
2018-08-30T16:33:44.415Z,97067.51
2018-08-30T16:37:09.287Z,97067.45
2018-08-30T16:41:59.634Z,97063.53
2018-08-30T16:45:24.516Z,97064.06
2018-08-30T16:48:49.492Z,97069.59
2018-08-30T16:52:14.159Z,97064.34
2018-08-30T16:55:38.964Z,97063.03
2018-08-30T16:59:03.721Z,97069.83
2018-08-30T17:02:28.351Z,97059.81
2018-08-30T17:05:53.331Z,97058.76
2018-08-30T17:09:18.016Z,97051.00
2018-08-30T17:12:45.141Z,97053.88
2018-08-30T17:16:09.846Z,97044.92
2018-08-30T17:19:35.081Z,97047.86
2018-08-30T17:22:59.751Z,97048.09
2018-08-30T17:26:24.394Z,97053.34
2018-08-30T17:29:49.059Z,97048.70
2018-08-30T17:33:13.667Z,97046.45
2018-08-30T17:36:38.328Z,97039.41
2018-08-30T17:40:03.025Z,97043.20
2018-08-30T17:43:27.713Z,97039.27
2018-08-30T17:46:52.466Z,97036.47
2018-08-30T17:50:17.897Z,97037.94
2018-08-30T17:53:42.707Z,97040.33
2018-08-30T17:57:07.545Z,97037.69
2018-08-30T18:00:33.441Z,97035.98
2018-08-30T18:03:58.213Z,97033.84
2018-08-30T18:07:23.353Z,97030.60
2018-08-30T18:10:48.162Z,97030.50
2018-08-30T18:14:13.073Z,97041.04
2018-08-30T18:17:37.871Z,97042.11
2018-08-30T18:21:02.571Z,97037.80
2018-08-30T18:24:27.374Z,97048.33
2018-08-30T18:27:52.101Z,97051.03
2018-08-30T18:31:17.177Z,97048.30
2018-08-30T18:34:42.002Z,97046.29
2018-08-30T18:38:06.782Z,97047.80
2018-08-30T18:41:32.463Z,97049.31
2018-08-30T18:44:57.414Z,97052.77
2018-08-30T18:48:22.212Z,97054.22
2018-08-30T18:51:47.010Z,97061.13
2018-08-30T18:55:11.793Z,97062.17
2018-08-30T18:58:36.584Z,97064.28
2018-08-30T19:02:01.337Z,97066.36
2018-08-30T19:05:26.294Z,97064.23
2018-08-30T19:08:50.976Z,97058.76
2018-08-30T19:12:15.740Z,97064.66
2018-08-30T19:15:45.634Z,97058.48
2018-08-30T19:19:13.361Z,97056.88
2018-08-30T19:22:38.370Z,97063.12
2018-08-30T19:26:03.129Z,97070.02
2018-08-30T19:29:28.261Z,97067.03
2018-08-30T19:32:53.053Z,97072.64
2018-08-30T19:36:23.304Z,97072.91
2018-08-30T19:39:48.248Z,97070.14
2018-08-30T19:43:13.535Z,97074.31
2018-08-30T19:46:38.258Z,97063.42
2018-08-30T19:50:02.973Z,97068.23
2018-08-30T19:53:27.746Z,97071.64
2018-08-30T19:56:52.412Z,97073.17
2018-08-30T20:00:17.234Z,97072.61
2018-08-30T20:03:42.722Z,97066.52
2018-08-30T20:07:07.412Z,97063.88
2018-08-30T20:10:32.137Z,97069.16
2018-08-30T20:13:56.858Z,97070.24
2018-08-30T20:17:21.627Z,97064.23
2018-08-30T20:20:46.407Z,97061.92
2018-08-30T20:24:11.293Z,97060.96
2018-08-30T20:27:36.284Z,97054.23
2018-08-30T20:31:01.034Z,97049.18
2018-08-30T20:34:25.826Z,97040.39
2018-08-30T20:37:50.492Z,97048.74
2018-08-30T20:41:15.321Z,97047.95
2018-08-30T20:44:39.924Z,97038.41
2018-08-30T20:48:06.413Z,97038.70
2018-08-30T20:51:31.161Z,97039.48
2018-08-30T20:54:55.921Z,97032.79
2018-08-30T20:58:20.689Z,97034.25
2018-08-30T21:01:45.507Z,97036.87
2018-08-30T21:05:10.222Z,97025.91
2018-08-30T21:08:35.010Z,97022.73
2018-08-30T21:11:59.678Z,97021.52
2018-08-30T21:15:24.353Z,97013.75
2018-08-30T21:18:49.009Z,97006.92
2018-08-30T21:22:13.760Z,97012.81
2018-08-30T21:25:38.467Z,97003.27
2018-08-30T21:29:03.181Z,97006.44
2018-08-30T21:32:27.910Z,97009.39
2018-08-30T21:35:52.684Z,97002.27
2018-08-30T21:39:20.935Z,97001.25
2018-08-30T21:42:45.640Z,97002.84
2018-08-30T21:46:11.437Z,97011.84
2018-08-30T21:49:36.182Z,97010.63
2018-08-30T21:53:00.900Z,97010.03
2018-08-30T21:56:25.716Z,97017.42
2018-08-30T21:59:50.414Z,96999.23
2018-08-30T22:03:15.095Z,96987.67
2018-08-30T22:06:39.835Z,96981.39
2018-08-30T22:10:04.720Z,96990.92
2018-08-30T22:13:29.482Z,96990.31
2018-08-30T22:16:54.339Z,96986.73
2018-08-30T22:20:18.989Z,96982.24
2018-08-30T22:23:44.219Z,96980.63
2018-08-30T22:27:08.945Z,96968.28
2018-08-30T22:30:33.594Z,96966.33
2018-08-30T22:33:58.249Z,96979.99
2018-08-30T22:37:22.987Z,96978.08
2018-08-30T22:40:47.730Z,96978.48
2018-08-30T22:44:12.313Z,96982.98
2018-08-30T22:47:36.976Z,96989.41
2018-08-30T22:51:01.609Z,96980.13
2018-08-30T22:54:26.300Z,96986.11
2018-08-30T22:57:50.986Z,96989.70
2018-08-30T23:01:15.727Z,96985.69
2018-08-30T23:04:40.383Z,96982.00
2018-08-30T23:08:05.118Z,96985.41
2018-08-30T23:11:30.455Z,96983.88
2018-08-30T23:14:55.137Z,96964.60
2018-08-30T23:18:19.792Z,96972.95
2018-08-30T23:21:44.495Z,96971.22
2018-08-30T23:25:09.302Z,96967.86
2018-08-30T23:28:33.929Z,96969.70
2018-08-30T23:31:58.581Z,96962.14
2018-08-30T23:35:23.334Z,96963.39
2018-08-30T23:38:48.124Z,96963.42
2018-08-30T23:42:12.829Z,96954.94
2018-08-30T23:45:37.487Z,96947.70
2018-08-30T23:49:02.222Z,96950.84
2018-08-30T23:52:26.975Z,96950.47
2018-08-30T23:55:51.628Z,96953.25
2018-08-30T23:59:33.641Z,96954.97
